createdAt,value
2022-08-03T00:02:33.769Z,99729.06
2022-08-03T00:07:38.872Z,99730.54
2022-08-03T00:12:41.883Z,99732.23
2022-08-03T00:17:53.080Z,99732.35
2022-08-03T00:23:00.260Z,99740.87
2022-08-03T00:28:05.609Z,99736.18
2022-08-03T00:33:10.537Z,99741.61
2022-08-03T00:38:13.944Z,99743.35
2022-08-03T00:43:17.103Z,99745.21
2022-08-03T00:48:33.230Z,99744.08
2022-08-03T00:53:37.473Z,99746.95
2022-08-03T00:58:40.555Z,99747.71
2022-08-03T01:03:43.391Z,99744.60
2022-08-03T01:09:38.016Z,99742.54
2022-08-03T01:15:09.401Z,99745.36
2022-08-03T01:20:14.696Z,99748.71
2022-08-03T01:26:06.140Z,99746.29
2022-08-03T01:31:12.172Z,99744.64
2022-08-03T01:36:22.468Z,99740.95
2022-08-03T01:41:32.239Z,99740.20
2022-08-03T01:46:37.306Z,99736.02
2022-08-03T01:52:03.583Z,99733.36
2022-08-03T01:57:08.702Z,99729.59
2022-08-03T02:02:34.046Z,99724.98
2022-08-03T02:07:41.007Z,99729.83
2022-08-03T02:12:51.063Z,99726.20
2022-08-03T02:17:56.879Z,99727.44
2022-08-03T02:23:00.486Z,99722.27
2022-08-03T02:28:11.350Z,99728.77
2022-08-03T02:33:31.941Z,99737.92
2022-08-03T02:38:40.319Z,99730.45
2022-08-03T02:44:06.033Z,99728.59
2022-08-03T02:49:40.953Z,99733.58
2022-08-03T02:54:37.124Z,99737.95
2022-08-03T02:59:42.269Z,99742.76
2022-08-03T03:05:51.518Z,99743.48
2022-08-03T03:10:10.830Z,99744.48
2022-08-03T03:15:17.082Z,99742.08
2022-08-03T03:20:26.717Z,99745.36
2022-08-03T03:25:34.697Z,99741.60
2022-08-03T03:30:38.306Z,99742.64
2022-08-03T03:35:44.804Z,99741.33
2022-08-03T03:40:48.998Z,99742.86
2022-08-03T03:45:53.909Z,99740.70
2022-08-03T03:50:58.105Z,99747.67
2022-08-03T03:56:03.098Z,99750.99
2022-08-03T04:01:06.830Z,99752.73
2022-08-03T04:06:51.192Z,99757.85
2022-08-03T04:12:01.249Z,99763.50
2022-08-03T04:17:09.551Z,99765.35
2022-08-03T04:22:19.068Z,99769.52
2022-08-03T04:27:30.970Z,99774.13
2022-08-03T04:32:36.228Z,99783.93
2022-08-03T04:37:49.005Z,99787.25
2022-08-03T04:42:55.920Z,99789.35
2022-08-03T04:48:00.136Z,99792.95
2022-08-03T04:53:07.341Z,99798.09
2022-08-03T04:58:10.642Z,99802.16
2022-08-03T05:03:20.327Z,99803.92
2022-08-03T05:08:28.042Z,99803.63
2022-08-03T05:13:31.572Z,99801.27
2022-08-03T05:18:36.096Z,99800.02
2022-08-03T05:23:39.169Z,99803.17
2022-08-03T05:28:51.038Z,99800.72
2022-08-03T05:33:57.507Z,99800.96
2022-08-03T05:39:02.730Z,99805.08
2022-08-03T05:44:09.432Z,99803.37
2022-08-03T05:49:12.469Z,99808.59
2022-08-03T05:54:15.632Z,99814.36
2022-08-03T05:59:37.566Z,99819.95
2022-08-03T06:04:41.678Z,99823.95
2022-08-03T06:10:34.910Z,99831.40
2022-08-03T06:15:11.177Z,99838.30
2022-08-03T06:20:17.857Z,99841.08
2022-08-03T06:25:23.627Z,99838.59
2022-08-03T06:30:26.957Z,99840.77
2022-08-03T06:35:32.651Z,99841.27
2022-08-03T06:40:41.290Z,99841.60
2022-08-03T06:45:44.381Z,99843.38
2022-08-03T06:50:50.757Z,99837.77
2022-08-03T06:55:54.931Z,99834.75
2022-08-03T07:00:58.288Z,99837.20
2022-08-03T07:06:04.309Z,99837.55
2022-08-03T07:11:08.212Z,99840.79
2022-08-03T07:16:12.257Z,99843.70
2022-08-03T07:21:16.853Z,99846.05
2022-08-03T07:26:19.949Z,99843.06
2022-08-03T07:31:22.989Z,99841.61
2022-08-03T07:36:27.125Z,99839.77
2022-08-03T07:41:30.320Z,99835.18
2022-08-03T07:46:33.643Z,99833.14
2022-08-03T07:51:37.063Z,99840.11
2022-08-03T07:56:40.114Z,99837.17
2022-08-03T08:01:43.123Z,99841.07
2022-08-03T08:06:46.950Z,99844.66
2022-08-03T08:11:51.572Z,99847.93
2022-08-03T08:16:55.357Z,99851.20
2022-08-03T08:22:02.745Z,99849.27
2022-08-03T08:27:06.275Z,99849.72
2022-08-03T08:32:11.427Z,99854.84
2022-08-03T08:37:17.343Z,99852.45
2022-08-03T08:42:20.358Z,99854.37
2022-08-03T08:47:30.617Z,99850.55
2022-08-03T08:52:54.553Z,99847.29
2022-08-03T08:58:05.355Z,99848.17
2022-08-03T09:03:09.377Z,99852.06
2022-08-03T09:08:12.525Z,99852.49
2022-08-03T09:13:16.111Z,99854.76
2022-08-03T09:18:32.798Z,99854.10
2022-08-03T09:24:02.891Z,99853.55
2022-08-03T09:29:14.358Z,99851.95
2022-08-03T09:34:18.701Z,99845.13
2022-08-03T09:39:41.508Z,99842.06
2022-08-03T09:44:51.046Z,99840.66
2022-08-03T09:50:09.372Z,99838.88
2022-08-03T09:56:30.412Z,99834.52
2022-08-03T10:00:59.707Z,99832.58
2022-08-03T10:06:20.345Z,99832.80
2022-08-03T10:11:36.225Z,99829.77
2022-08-03T10:16:45.099Z,99830.63
2022-08-03T10:21:58.123Z,99826.63
2022-08-03T10:27:07.534Z,99829.31
2022-08-03T10:32:32.919Z,99832.27
2022-08-03T10:37:56.386Z,99833.59
2022-08-03T10:43:13.248Z,99833.28
2022-08-03T10:48:17.926Z,99831.91
2022-08-03T10:53:54.916Z,99835.87
2022-08-03T10:58:59.326Z,99834.71
2022-08-03T11:04:10.968Z,99834.50
2022-08-03T11:09:18.399Z,99835.23
2022-08-03T11:14:22.704Z,99830.53
2022-08-03T11:19:57.761Z,99830.13
2022-08-03T11:25:04.899Z,99825.04
2022-08-03T11:30:19.803Z,99824.36
2022-08-03T11:35:32.339Z,99821.96
2022-08-03T11:40:48.645Z,99818.61
2022-08-03T11:46:29.616Z,99814.60
2022-08-03T11:51:33.067Z,99813.63
2022-08-03T11:56:46.650Z,99814.92
2022-08-03T12:01:51.342Z,99811.03
2022-08-03T12:07:02.060Z,99806.81
2022-08-03T12:12:05.432Z,99802.28
2022-08-03T12:17:11.592Z,99798.30
2022-08-03T12:22:16.892Z,99795.42
2022-08-03T12:27:29.910Z,99785.35
2022-08-03T12:32:33.388Z,99783.19
2022-08-03T12:37:39.031Z,99777.48
2022-08-03T12:42:42.442Z,99776.73
2022-08-03T12:48:02.935Z,99771.14
2022-08-03T12:53:10.765Z,99765.32
2022-08-03T12:58:31.348Z,99763.33
2022-08-03T13:03:49.957Z,99764.65
2022-08-03T13:09:11.335Z,99762.20
2022-08-03T13:14:16.811Z,99757.76
2022-08-03T13:19:23.035Z,99754.65
2022-08-03T13:24:26.275Z,99753.33
2022-08-03T13:29:29.292Z,99749.50
2022-08-03T13:34:35.960Z,99747.45
2022-08-03T13:39:57.296Z,99736.13
2022-08-03T13:45:06.550Z,99733.42
2022-08-03T13:50:09.711Z,99732.61
2022-08-03T13:55:12.781Z,99732.73
2022-08-03T14:00:27.093Z,99733.49
2022-08-03T14:05:32.664Z,99730.36
2022-08-03T14:10:42.698Z,99725.52
2022-08-03T14:15:51.227Z,99726.39
2022-08-03T14:20:56.829Z,99719.92
2022-08-03T14:26:01.386Z,99717.80
2022-08-03T14:31:08.563Z,99717.34
2022-08-03T14:36:28.158Z,99712.27
2022-08-03T14:41:31.193Z,99708.92
2022-08-03T14:46:37.533Z,99711.82
2022-08-03T14:51:40.554Z,99709.30
2022-08-03T14:56:56.479Z,99706.63
2022-08-03T15:02:04.799Z,99706.81
2022-08-03T15:07:09.676Z,99706.17
2022-08-03T15:12:12.939Z,99698.80
2022-08-03T15:17:15.945Z,99697.27
2022-08-03T15:22:24.904Z,99694.92
2022-08-03T15:27:37.501Z,99692.31
2022-08-03T15:33:00.472Z,99688.85
2022-08-03T15:38:09.034Z,99686.16
2022-08-03T15:43:12.746Z,99686.42
2022-08-03T15:48:20.326Z,99681.02
2022-08-03T15:53:29.621Z,99676.72
2022-08-03T15:59:03.615Z,99675.82
2022-08-03T16:03:55.702Z,99670.16
2022-08-03T16:08:58.720Z,99668.34
2022-08-03T16:14:13.072Z,99665.05
2022-08-03T16:19:28.763Z,99651.29
2022-08-03T16:24:32.150Z,99655.79
2022-08-03T16:29:35.164Z,99656.97
2022-08-03T16:34:40.916Z,99653.76
2022-08-03T16:39:44.579Z,99654.23
2022-08-03T16:44:47.669Z,99652.90
2022-08-03T16:49:54.351Z,99652.81
2022-08-03T16:54:59.736Z,99658.18
2022-08-03T17:00:05.371Z,99656.05
2022-08-03T17:05:09.608Z,99654.02
2022-08-03T17:10:13.087Z,99653.50
2022-08-03T17:15:16.224Z,99662.64
2022-08-03T17:20:20.415Z,99669.48
2022-08-03T17:26:01.736Z,99671.27
2022-08-03T17:31:23.050Z,99674.55
2022-08-03T17:37:05.465Z,99681.94
2022-08-03T17:42:03.989Z,99684.56
2022-08-03T17:47:07.037Z,99692.79
2022-08-03T17:52:30.956Z,99696.08
2022-08-03T17:58:02.330Z,99700.65
2022-08-03T18:03:18.622Z,99704.17
2022-08-03T18:08:31.438Z,99712.10
2022-08-03T18:14:17.032Z,99717.09
2022-08-03T18:19:21.513Z,99721.33
2022-08-03T18:24:44.919Z,99724.98
2022-08-03T18:29:49.631Z,99728.12
2022-08-03T18:35:03.086Z,99735.56
2022-08-03T18:40:07.796Z,99742.31
2022-08-03T18:45:14.736Z,99755.13
2022-08-03T18:56:26.893Z,99768.55
2022-08-03T19:02:00.640Z,99772.83
2022-08-03T19:07:08.201Z,99774.46
2022-08-03T19:12:30.752Z,99775.91
2022-08-03T19:17:53.314Z,99777.11
2022-08-03T19:22:59.578Z,99780.41
2022-08-03T19:28:06.182Z,99779.98
2022-08-03T19:33:15.697Z,99777.23
2022-08-03T19:38:28.300Z,99779.23
2022-08-03T19:49:16.525Z,99776.85
2022-08-03T19:54:29.382Z,99780.85
2022-08-03T19:59:49.564Z,99780.44
2022-08-03T20:04:53.876Z,99781.66
2022-08-03T20:09:57.082Z,99781.38
2022-08-03T20:15:00.830Z,99781.23
2022-08-03T20:20:05.432Z,99783.27
2022-08-03T20:25:12.966Z,99783.51
2022-08-03T20:30:26.400Z,99783.02
2022-08-03T20:35:30.626Z,99785.29
2022-08-03T20:40:34.389Z,99782.73
2022-08-03T20:46:00.052Z,99789.85
2022-08-03T20:51:05.866Z,99799.53
2022-08-03T20:56:23.067Z,99802.70
2022-08-03T21:01:27.543Z,99797.17
2022-08-03T21:06:45.677Z,99797.64
2022-08-03T21:12:01.032Z,99797.90
2022-08-03T21:13:10.281Z,99776.16
2022-08-03T21:13:11.099Z,99764.14
2022-08-03T21:17:14.033Z,99802.30
2022-08-03T21:22:23.287Z,99805.17
2022-08-03T21:27:30.995Z,99801.61
2022-08-03T21:32:34.432Z,99804.15
2022-08-03T21:37:40.198Z,99809.59
2022-08-03T21:42:45.711Z,99804.00
2022-08-03T21:47:48.892Z,99814.17
2022-08-03T21:52:52.333Z,99814.15
2022-08-03T21:58:00.370Z,99815.19
2022-08-03T22:03:17.151Z,99813.17
2022-08-03T22:08:21.062Z,99813.51
2022-08-03T22:13:43.970Z,99811.07
2022-08-03T22:18:47.034Z,99809.45
2022-08-03T22:23:54.680Z,99807.36
2022-08-03T22:28:59.574Z,99813.79
2022-08-03T22:34:02.624Z,99815.35
2022-08-03T22:39:06.295Z,99820.34
2022-08-03T22:44:09.757Z,99822.04
2022-08-03T22:49:13.947Z,99821.96
2022-08-03T22:54:17.418Z,99823.66
2022-08-03T22:59:40.520Z,99820.48
2022-08-03T23:04:49.228Z,99822.38
2022-08-03T23:09:52.687Z,99823.71
2022-08-03T23:15:03.361Z,99817.39
2022-08-03T23:20:09.588Z,99814.10
2022-08-03T23:25:12.612Z,99809.05
2022-08-03T23:30:16.039Z,99811.70
2022-08-03T23:36:20.205Z,99809.18
2022-08-03T23:41:09.489Z,99805.30
2022-08-03T23:46:13.747Z,99802.21
2022-08-03T23:51:40.330Z,99802.11
2022-08-03T23:57:00.320Z,99804.51
